<?xml version="1.0" encoding="UTF-8" standalone="no" ?>
<gpx xmlns="http://www.topografix.com/GPX/1/1" xmlns:xsi="http://www.w3.org/2001/XMLSchema-instance" xsi:schemaLocation="http://www.topografix.com/GPX/1/1 http://www.topografix.com/GPX/1/1/gpx.xsd" version="1.1" creator="VisuGPX - https://www.visugpx.com">
  <metadata>
    <name>Ambrevetta</name>
    <desc><![CDATA[En aller-retour par la combe de Tardevant.]]></desc>
  </metadata>
  <trk>
    <name><![CDATA[2017-02-16-01]]></name>
    <trkseg>
      <trkpt lat="45.9201" lon="6.4799">
        <ele>1423.3</ele>
        <time>2017-02-16T09:10:16Z</time>
      </trkpt>
      <trkpt lat="45.9201" lon="6.4799">
        <ele>1423.3</ele>
        <time>2017-02-16T09:10:17Z</time>
      </trkpt>
      <trkpt lat="45.92029" lon="6.4805">
        <ele>1425.1</ele>
        <time>2017-02-16T09:12:17Z</time>
      </trkpt>
      <trkpt lat="45.92053" lon="6.48106">
        <ele>1427.3</ele>
        <time>2017-02-16T09:12:52Z</time>
      </trkpt>
      <trkpt lat="45.92062" lon="6.4817">
        <ele>1432.3</ele>
        <time>2017-02-16T09:13:35Z</time>
      </trkpt>
      <trkpt lat="45.92076" lon="6.48233">
        <ele>1440.5</ele>
        <time>2017-02-16T09:14:18Z</time>
      </trkpt>
      <trkpt lat="45.92087" lon="6.48296">
        <ele>1447.4</ele>
        <time>2017-02-16T09:15:00Z</time>
      </trkpt>
      <trkpt lat="45.92083" lon="6.48362">
        <ele>1455</ele>
        <time>2017-02-16T09:15:43Z</time>
      </trkpt>
      <trkpt lat="45.92095" lon="6.48425">
        <ele>1463</ele>
        <time>2017-02-16T09:16:37Z</time>
      </trkpt>
      <trkpt lat="45.92115" lon="6.48485">
        <ele>1465.6</ele>
        <time>2017-02-16T09:17:27Z</time>
      </trkpt>
      <trkpt lat="45.92145" lon="6.48534">
        <ele>1469.9</ele>
        <time>2017-02-16T09:18:30Z</time>
      </trkpt>
      <trkpt lat="45.92134" lon="6.48596">
        <ele>1472.8</ele>
        <time>2017-02-16T09:19:04Z</time>
      </trkpt>
      <trkpt lat="45.92121" lon="6.48659">
        <ele>1471.4</ele>
        <time>2017-02-16T09:19:31Z</time>
      </trkpt>
      <trkpt lat="45.92151" lon="6.48707">
        <ele>1468.1</ele>
        <time>2017-02-16T09:19:56Z</time>
      </trkpt>
      <trkpt lat="45.92169" lon="6.48769">
        <ele>1465.5</ele>
        <time>2017-02-16T09:21:23Z</time>
      </trkpt>
      <trkpt lat="45.92176" lon="6.48833">
        <ele>1462.5</ele>
        <time>2017-02-16T09:21:53Z</time>
      </trkpt>
      <trkpt lat="45.9218" lon="6.48899">
        <ele>1458.8</ele>
        <time>2017-02-16T09:22:27Z</time>
      </trkpt>
      <trkpt lat="45.92214" lon="6.48944">
        <ele>1459.3</ele>
        <time>2017-02-16T09:23:01Z</time>
      </trkpt>
      <trkpt lat="45.92246" lon="6.4899">
        <ele>1464</ele>
        <time>2017-02-16T09:23:40Z</time>
      </trkpt>
      <trkpt lat="45.92278" lon="6.49036">
        <ele>1468.5</ele>
        <time>2017-02-16T09:24:19Z</time>
      </trkpt>
      <trkpt lat="45.92318" lon="6.49067">
        <ele>1475.7</ele>
        <time>2017-02-16T09:25:01Z</time>
      </trkpt>
      <trkpt lat="45.92357" lon="6.49101">
        <ele>1482.4</ele>
        <time>2017-02-16T09:25:42Z</time>
      </trkpt>
      <trkpt lat="45.92401" lon="6.49115">
        <ele>1491.5</ele>
        <time>2017-02-16T09:26:26Z</time>
      </trkpt>
      <trkpt lat="45.92446" lon="6.4912">
        <ele>1497.2</ele>
        <time>2017-02-16T09:27:08Z</time>
      </trkpt>
      <trkpt lat="45.92476" lon="6.4917">
        <ele>1500.9</ele>
        <time>2017-02-16T09:27:45Z</time>
      </trkpt>
      <trkpt lat="45.92516" lon="6.49202">
        <ele>1498</ele>
        <time>2017-02-16T09:28:14Z</time>
      </trkpt>
      <trkpt lat="45.9256" lon="6.49218">
        <ele>1498.1</ele>
        <time>2017-02-16T09:28:40Z</time>
      </trkpt>
      <trkpt lat="45.92606" lon="6.49226">
        <ele>1493.7</ele>
        <time>2017-02-16T09:29:03Z</time>
      </trkpt>
      <trkpt lat="45.92646" lon="6.49259">
        <ele>1489.2</ele>
        <time>2017-02-16T09:29:24Z</time>
      </trkpt>
      <trkpt lat="45.92689" lon="6.49285">
        <ele>1489</ele>
        <time>2017-02-16T09:29:49Z</time>
      </trkpt>
      <trkpt lat="45.92712" lon="6.49341">
        <ele>1493.1</ele>
        <time>2017-02-16T09:30:23Z</time>
      </trkpt>
      <trkpt lat="45.92726" lon="6.49402">
        <ele>1502</ele>
        <time>2017-02-16T09:31:02Z</time>
      </trkpt>
      <trkpt lat="45.92694" lon="6.49452">
        <ele>1500.6</ele>
        <time>2017-02-16T09:31:37Z</time>
      </trkpt>
      <trkpt lat="45.92655" lon="6.49487">
        <ele>1497.5</ele>
        <time>2017-02-16T09:32:03Z</time>
      </trkpt>
      <trkpt lat="45.92638" lon="6.49548">
        <ele>1503.5</ele>
        <time>2017-02-16T09:32:47Z</time>
      </trkpt>
      <trkpt lat="45.9264" lon="6.49614">
        <ele>1507.8</ele>
        <time>2017-02-16T09:33:26Z</time>
      </trkpt>
      <trkpt lat="45.92629" lon="6.49678">
        <ele>1518.6</ele>
        <time>2017-02-16T09:34:06Z</time>
      </trkpt>
      <trkpt lat="45.92645" lon="6.49739">
        <ele>1517.3</ele>
        <time>2017-02-16T09:34:45Z</time>
      </trkpt>
      <trkpt lat="45.92665" lon="6.49798">
        <ele>1529.9</ele>
        <time>2017-02-16T09:35:35Z</time>
      </trkpt>
      <trkpt lat="45.92677" lon="6.49861">
        <ele>1536.6</ele>
        <time>2017-02-16T09:36:20Z</time>
      </trkpt>
      <trkpt lat="45.92683" lon="6.49926">
        <ele>1542.9</ele>
        <time>2017-02-16T09:37:05Z</time>
      </trkpt>
      <trkpt lat="45.92685" lon="6.49991">
        <ele>1552.3</ele>
        <time>2017-02-16T09:38:02Z</time>
      </trkpt>
      <trkpt lat="45.927" lon="6.50052">
        <ele>1563.3</ele>
        <time>2017-02-16T09:39:03Z</time>
      </trkpt>
      <trkpt lat="45.92728" lon="6.50105">
        <ele>1580</ele>
        <time>2017-02-16T09:40:24Z</time>
      </trkpt>
      <trkpt lat="45.92756" lon="6.50157">
        <ele>1583.4</ele>
        <time>2017-02-16T09:41:05Z</time>
      </trkpt>
      <trkpt lat="45.92788" lon="6.50204">
        <ele>1590.1</ele>
        <time>2017-02-16T09:41:50Z</time>
      </trkpt>
      <trkpt lat="45.92817" lon="6.50253">
        <ele>1600.7</ele>
        <time>2017-02-16T09:42:42Z</time>
      </trkpt>
      <trkpt lat="45.92846" lon="6.50302">
        <ele>1615.6</ele>
        <time>2017-02-16T09:44:00Z</time>
      </trkpt>
      <trkpt lat="45.92865" lon="6.50361">
        <ele>1630.8</ele>
        <time>2017-02-16T09:45:09Z</time>
      </trkpt>
      <trkpt lat="45.92826" lon="6.50395">
        <ele>1644.2</ele>
        <time>2017-02-16T09:46:26Z</time>
      </trkpt>
      <trkpt lat="45.92858" lon="6.5044">
        <ele>1650.1</ele>
        <time>2017-02-16T09:47:12Z</time>
      </trkpt>
      <trkpt lat="45.92896" lon="6.50475">
        <ele>1666.2</ele>
        <time>2017-02-16T09:48:25Z</time>
      </trkpt>
      <trkpt lat="45.92922" lon="6.50529">
        <ele>1677.8</ele>
        <time>2017-02-16T09:52:00Z</time>
      </trkpt>
      <trkpt lat="45.92943" lon="6.50587">
        <ele>1675.1</ele>
        <time>2017-02-16T09:52:31Z</time>
      </trkpt>
      <trkpt lat="45.92976" lon="6.50631">
        <ele>1676.1</ele>
        <time>2017-02-16T09:53:08Z</time>
      </trkpt>
      <trkpt lat="45.93013" lon="6.50668">
        <ele>1682.4</ele>
        <time>2017-02-16T09:53:49Z</time>
      </trkpt>
      <trkpt lat="45.93035" lon="6.50726">
        <ele>1691</ele>
        <time>2017-02-16T09:54:35Z</time>
      </trkpt>
      <trkpt lat="45.93066" lon="6.50775">
        <ele>1700.1</ele>
        <time>2017-02-16T09:55:17Z</time>
      </trkpt>
      <trkpt lat="45.93089" lon="6.50831">
        <ele>1706.7</ele>
        <time>2017-02-16T09:56:01Z</time>
      </trkpt>
      <trkpt lat="45.93105" lon="6.50892">
        <ele>1720.4</ele>
        <time>2017-02-16T09:57:03Z</time>
      </trkpt>
      <trkpt lat="45.93127" lon="6.50949">
        <ele>1732.9</ele>
        <time>2017-02-16T09:58:05Z</time>
      </trkpt>
      <trkpt lat="45.93085" lon="6.50972">
        <ele>1747.9</ele>
        <time>2017-02-16T09:59:50Z</time>
      </trkpt>
      <trkpt lat="45.931" lon="6.51033">
        <ele>1770.7</ele>
        <time>2017-02-16T10:01:13Z</time>
      </trkpt>
      <trkpt lat="45.93056" lon="6.51051">
        <ele>1781.2</ele>
        <time>2017-02-16T10:02:11Z</time>
      </trkpt>
      <trkpt lat="45.93031" lon="6.51105">
        <ele>1795.1</ele>
        <time>2017-02-16T10:04:43Z</time>
      </trkpt>
      <trkpt lat="45.92999" lon="6.5115">
        <ele>1813.1</ele>
        <time>2017-02-16T10:05:43Z</time>
      </trkpt>
      <trkpt lat="45.92982" lon="6.5121">
        <ele>1829.1</ele>
        <time>2017-02-16T10:06:58Z</time>
      </trkpt>
      <trkpt lat="45.92946" lon="6.51249">
        <ele>1839.9</ele>
        <time>2017-02-16T10:07:56Z</time>
      </trkpt>
      <trkpt lat="45.92921" lon="6.51305">
        <ele>1852.1</ele>
        <time>2017-02-16T10:08:52Z</time>
      </trkpt>
      <trkpt lat="45.929" lon="6.51362">
        <ele>1864.3</ele>
        <time>2017-02-16T10:10:09Z</time>
      </trkpt>
      <trkpt lat="45.9286" lon="6.51392">
        <ele>1879.7</ele>
        <time>2017-02-16T10:11:35Z</time>
      </trkpt>
      <trkpt lat="45.92821" lon="6.51423">
        <ele>1904</ele>
        <time>2017-02-16T10:13:20Z</time>
      </trkpt>
      <trkpt lat="45.92776" lon="6.51409">
        <ele>1920</ele>
        <time>2017-02-16T10:14:42Z</time>
      </trkpt>
      <trkpt lat="45.92734" lon="6.51388">
        <ele>1933</ele>
        <time>2017-02-16T10:15:38Z</time>
      </trkpt>
      <trkpt lat="45.92699" lon="6.5143">
        <ele>1947</ele>
        <time>2017-02-16T10:17:42Z</time>
      </trkpt>
      <trkpt lat="45.92686" lon="6.51492">
        <ele>1967.5</ele>
        <time>2017-02-16T10:19:32Z</time>
      </trkpt>
      <trkpt lat="45.92643" lon="6.5151">
        <ele>1988.6</ele>
        <time>2017-02-16T10:22:35Z</time>
      </trkpt>
      <trkpt lat="45.92609" lon="6.51552">
        <ele>2019.1</ele>
        <time>2017-02-16T10:24:50Z</time>
      </trkpt>
      <trkpt lat="45.92568" lon="6.51581">
        <ele>2056.6</ele>
        <time>2017-02-16T10:27:38Z</time>
      </trkpt>
      <trkpt lat="45.92522" lon="6.51578">
        <ele>2089</ele>
        <time>2017-02-16T10:30:28Z</time>
      </trkpt>
      <trkpt lat="45.92482" lon="6.51607">
        <ele>2141.4</ele>
        <time>2017-02-16T10:33:18Z</time>
      </trkpt>
      <trkpt lat="45.92456" lon="6.51662">
        <ele>2128</ele>
        <time>2017-02-16T10:37:13Z</time>
      </trkpt>
      <trkpt lat="45.92455" lon="6.51728">
        <ele>2128.2</ele>
        <time>2017-02-16T10:37:58Z</time>
      </trkpt>
      <trkpt lat="45.92462" lon="6.51793">
        <ele>2128.1</ele>
        <time>2017-02-16T10:38:44Z</time>
      </trkpt>
      <trkpt lat="45.92502" lon="6.51821">
        <ele>2142.3</ele>
        <time>2017-02-16T10:39:41Z</time>
      </trkpt>
      <trkpt lat="45.92499" lon="6.51885">
        <ele>2159.3</ele>
        <time>2017-02-16T10:41:07Z</time>
      </trkpt>
      <trkpt lat="45.92486" lon="6.51947">
        <ele>2173.9</ele>
        <time>2017-02-16T10:42:08Z</time>
      </trkpt>
      <trkpt lat="45.92489" lon="6.52012">
        <ele>2187</ele>
        <time>2017-02-16T10:43:11Z</time>
      </trkpt>
      <trkpt lat="45.92495" lon="6.52077">
        <ele>2200.8</ele>
        <time>2017-02-16T10:44:15Z</time>
      </trkpt>
      <trkpt lat="45.92488" lon="6.52141">
        <ele>2215.5</ele>
        <time>2017-02-16T10:45:27Z</time>
      </trkpt>
      <trkpt lat="45.92483" lon="6.52207">
        <ele>2223.2</ele>
        <time>2017-02-16T10:46:23Z</time>
      </trkpt>
      <trkpt lat="45.9247" lon="6.52269">
        <ele>2230</ele>
        <time>2017-02-16T10:47:11Z</time>
      </trkpt>
      <trkpt lat="45.92452" lon="6.52329">
        <ele>2238.5</ele>
        <time>2017-02-16T10:48:04Z</time>
      </trkpt>
      <trkpt lat="45.92453" lon="6.52393">
        <ele>2248.5</ele>
        <time>2017-02-16T10:48:57Z</time>
      </trkpt>
      <trkpt lat="45.92449" lon="6.52459">
        <ele>2258.1</ele>
        <time>2017-02-16T10:49:52Z</time>
      </trkpt>
      <trkpt lat="45.92434" lon="6.52521">
        <ele>2263</ele>
        <time>2017-02-16T10:50:45Z</time>
      </trkpt>
      <trkpt lat="45.92407" lon="6.52574">
        <ele>2275.7</ele>
        <time>2017-02-16T10:51:47Z</time>
      </trkpt>
      <trkpt lat="45.92407" lon="6.52639">
        <ele>2293</ele>
        <time>2017-02-16T10:53:26Z</time>
      </trkpt>
      <trkpt lat="45.92424" lon="6.52698">
        <ele>2329.1</ele>
        <time>2017-02-16T11:02:17Z</time>
      </trkpt>
      <trkpt lat="45.92418" lon="6.52763">
        <ele>2346.7</ele>
        <time>2017-02-16T11:03:52Z</time>
      </trkpt>
      <trkpt lat="45.92415" lon="6.52828">
        <ele>2365.8</ele>
        <time>2017-02-16T11:06:02Z</time>
      </trkpt>
      <trkpt lat="45.92429" lon="6.52889">
        <ele>2385.4</ele>
        <time>2017-02-16T11:08:09Z</time>
      </trkpt>
      <trkpt lat="45.92436" lon="6.52953">
        <ele>2409.3</ele>
        <time>2017-02-16T11:09:38Z</time>
      </trkpt>
      <trkpt lat="45.92428" lon="6.53018">
        <ele>2429.3</ele>
        <time>2017-02-16T11:12:01Z</time>
      </trkpt>
      <trkpt lat="45.92452" lon="6.53073">
        <ele>2449.9</ele>
        <time>2017-02-16T11:13:57Z</time>
      </trkpt>
      <trkpt lat="45.92494" lon="6.5305">
        <ele>2460.1</ele>
        <time>2017-02-16T11:55:03Z</time>
      </trkpt>
      <trkpt lat="45.92449" lon="6.53061">
        <ele>2448.7</ele>
        <time>2017-02-16T11:58:12Z</time>
      </trkpt>
      <trkpt lat="45.92439" lon="6.52996">
        <ele>2425.2</ele>
        <time>2017-02-16T11:58:32Z</time>
      </trkpt>
      <trkpt lat="45.9242" lon="6.52935">
        <ele>2404.5</ele>
        <time>2017-02-16T11:58:52Z</time>
      </trkpt>
      <trkpt lat="45.92383" lon="6.52887">
        <ele>2393.1</ele>
        <time>2017-02-16T11:59:14Z</time>
      </trkpt>
      <trkpt lat="45.92406" lon="6.52829">
        <ele>2365.7</ele>
        <time>2017-02-16T11:59:40Z</time>
      </trkpt>
      <trkpt lat="45.9242" lon="6.52765">
        <ele>2348.9</ele>
        <time>2017-02-16T11:59:53Z</time>
      </trkpt>
      <trkpt lat="45.92417" lon="6.52699">
        <ele>2330.5</ele>
        <time>2017-02-16T12:00:28Z</time>
      </trkpt>
      <trkpt lat="45.92438" lon="6.52641">
        <ele>2309.1</ele>
        <time>2017-02-16T12:00:47Z</time>
      </trkpt>
      <trkpt lat="45.92399" lon="6.52608">
        <ele>2283.3</ele>
        <time>2017-02-16T12:01:35Z</time>
      </trkpt>
      <trkpt lat="45.92398" lon="6.52537">
        <ele>2268.6</ele>
        <time>2017-02-16T12:01:54Z</time>
      </trkpt>
      <trkpt lat="45.92414" lon="6.52475">
        <ele>2251.3</ele>
        <time>2017-02-16T12:02:05Z</time>
      </trkpt>
      <trkpt lat="45.92425" lon="6.52412">
        <ele>2240.5</ele>
        <time>2017-02-16T12:02:15Z</time>
      </trkpt>
      <trkpt lat="45.92426" lon="6.52342">
        <ele>2234.6</ele>
        <time>2017-02-16T12:02:24Z</time>
      </trkpt>
      <trkpt lat="45.92408" lon="6.52276">
        <ele>2226.2</ele>
        <time>2017-02-16T12:02:45Z</time>
      </trkpt>
      <trkpt lat="45.92403" lon="6.52209">
        <ele>2215.7</ele>
        <time>2017-02-16T12:02:53Z</time>
      </trkpt>
      <trkpt lat="45.92393" lon="6.52141">
        <ele>2211.6</ele>
        <time>2017-02-16T12:02:59Z</time>
      </trkpt>
      <trkpt lat="45.9237" lon="6.5208">
        <ele>2204.9</ele>
        <time>2017-02-16T12:03:06Z</time>
      </trkpt>
      <trkpt lat="45.92351" lon="6.52021">
        <ele>2206.9</ele>
        <time>2017-02-16T12:03:34Z</time>
      </trkpt>
      <trkpt lat="45.92343" lon="6.51955">
        <ele>2209.4</ele>
        <time>2017-02-16T12:05:30Z</time>
      </trkpt>
      <trkpt lat="45.92347" lon="6.51886">
        <ele>2197</ele>
        <time>2017-02-16T12:05:41Z</time>
      </trkpt>
      <trkpt lat="45.92355" lon="6.51821">
        <ele>2190</ele>
        <time>2017-02-16T12:06:01Z</time>
      </trkpt>
      <trkpt lat="45.92365" lon="6.51753">
        <ele>2171.7</ele>
        <time>2017-02-16T12:06:36Z</time>
      </trkpt>
      <trkpt lat="45.92369" lon="6.51687">
        <ele>2161.6</ele>
        <time>2017-02-16T12:06:49Z</time>
      </trkpt>
      <trkpt lat="45.92389" lon="6.51627">
        <ele>2151.8</ele>
        <time>2017-02-16T12:07:09Z</time>
      </trkpt>
      <trkpt lat="45.9243" lon="6.51592">
        <ele>2144.9</ele>
        <time>2017-02-16T12:07:20Z</time>
      </trkpt>
      <trkpt lat="45.92473" lon="6.51618">
        <ele>2127.4</ele>
        <time>2017-02-16T12:07:59Z</time>
      </trkpt>
      <trkpt lat="45.9251" lon="6.5158">
        <ele>2102.8</ele>
        <time>2017-02-16T12:08:29Z</time>
      </trkpt>
      <trkpt lat="45.92552" lon="6.51551">
        <ele>2069.9</ele>
        <time>2017-02-16T12:09:22Z</time>
      </trkpt>
      <trkpt lat="45.92598" lon="6.51548">
        <ele>2034.5</ele>
        <time>2017-02-16T12:09:44Z</time>
      </trkpt>
      <trkpt lat="45.92639" lon="6.51519">
        <ele>2007.8</ele>
        <time>2017-02-16T12:11:37Z</time>
      </trkpt>
      <trkpt lat="45.92662" lon="6.51463">
        <ele>1983.1</ele>
        <time>2017-02-16T12:11:59Z</time>
      </trkpt>
      <trkpt lat="45.92691" lon="6.51413">
        <ele>1952.6</ele>
        <time>2017-02-16T12:12:14Z</time>
      </trkpt>
      <trkpt lat="45.92734" lon="6.51395">
        <ele>1931.5</ele>
        <time>2017-02-16T12:12:51Z</time>
      </trkpt>
      <trkpt lat="45.92778" lon="6.51416">
        <ele>1920.7</ele>
        <time>2017-02-16T12:13:08Z</time>
      </trkpt>
      <trkpt lat="45.92819" lon="6.51451">
        <ele>1911.5</ele>
        <time>2017-02-16T12:13:24Z</time>
      </trkpt>
      <trkpt lat="45.9286" lon="6.51417">
        <ele>1891.4</ele>
        <time>2017-02-16T12:13:39Z</time>
      </trkpt>
      <trkpt lat="45.92907" lon="6.5141">
        <ele>1880.3</ele>
        <time>2017-02-16T12:13:53Z</time>
      </trkpt>
      <trkpt lat="45.92919" lon="6.51345">
        <ele>1859.4</ele>
        <time>2017-02-16T12:14:08Z</time>
      </trkpt>
      <trkpt lat="45.92932" lon="6.51277">
        <ele>1846.5</ele>
        <time>2017-02-16T12:14:24Z</time>
      </trkpt>
      <trkpt lat="45.92967" lon="6.51236">
        <ele>1833.2</ele>
        <time>2017-02-16T12:15:43Z</time>
      </trkpt>
      <trkpt lat="45.92989" lon="6.51175">
        <ele>1819.1</ele>
        <time>2017-02-16T12:16:04Z</time>
      </trkpt>
      <trkpt lat="45.93017" lon="6.51123">
        <ele>1800.9</ele>
        <time>2017-02-16T12:16:19Z</time>
      </trkpt>
      <trkpt lat="45.93043" lon="6.51069">
        <ele>1789.5</ele>
        <time>2017-02-16T12:16:39Z</time>
      </trkpt>
      <trkpt lat="45.93034" lon="6.51003">
        <ele>1781.8</ele>
        <time>2017-02-16T12:17:01Z</time>
      </trkpt>
      <trkpt lat="45.93014" lon="6.50944">
        <ele>1776.5</ele>
        <time>2017-02-16T12:17:14Z</time>
      </trkpt>
      <trkpt lat="45.92989" lon="6.50885">
        <ele>1769.8</ele>
        <time>2017-02-16T12:17:27Z</time>
      </trkpt>
      <trkpt lat="45.92959" lon="6.50836">
        <ele>1764.9</ele>
        <time>2017-02-16T12:17:42Z</time>
      </trkpt>
      <trkpt lat="45.92933" lon="6.50778">
        <ele>1753</ele>
        <time>2017-02-16T12:18:09Z</time>
      </trkpt>
      <trkpt lat="45.92932" lon="6.50711">
        <ele>1723.8</ele>
        <time>2017-02-16T12:19:16Z</time>
      </trkpt>
      <trkpt lat="45.92919" lon="6.50647">
        <ele>1711</ele>
        <time>2017-02-16T12:20:11Z</time>
      </trkpt>
      <trkpt lat="45.92915" lon="6.50582">
        <ele>1701.6</ele>
        <time>2017-02-16T12:20:24Z</time>
      </trkpt>
      <trkpt lat="45.92891" lon="6.50527">
        <ele>1696.2</ele>
        <time>2017-02-16T12:21:08Z</time>
      </trkpt>
      <trkpt lat="45.92857" lon="6.50482">
        <ele>1674.3</ele>
        <time>2017-02-16T12:21:36Z</time>
      </trkpt>
      <trkpt lat="45.92827" lon="6.50432">
        <ele>1662.8</ele>
        <time>2017-02-16T12:21:48Z</time>
      </trkpt>
      <trkpt lat="45.92799" lon="6.5038">
        <ele>1654.9</ele>
        <time>2017-02-16T12:22:00Z</time>
      </trkpt>
      <trkpt lat="45.92792" lon="6.50311">
        <ele>1631.2</ele>
        <time>2017-02-16T12:22:41Z</time>
      </trkpt>
      <trkpt lat="45.92779" lon="6.50247">
        <ele>1613</ele>
        <time>2017-02-16T12:22:58Z</time>
      </trkpt>
      <trkpt lat="45.92748" lon="6.502">
        <ele>1604.5</ele>
        <time>2017-02-16T12:23:13Z</time>
      </trkpt>
      <trkpt lat="45.92704" lon="6.50169">
        <ele>1598.1</ele>
        <time>2017-02-16T12:23:25Z</time>
      </trkpt>
      <trkpt lat="45.92671" lon="6.50117">
        <ele>1589.9</ele>
        <time>2017-02-16T12:23:38Z</time>
      </trkpt>
      <trkpt lat="45.92648" lon="6.50061">
        <ele>1585.5</ele>
        <time>2017-02-16T12:23:54Z</time>
      </trkpt>
      <trkpt lat="45.9264" lon="6.49994">
        <ele>1576.2</ele>
        <time>2017-02-16T12:24:29Z</time>
      </trkpt>
      <trkpt lat="45.92631" lon="6.49926">
        <ele>1570</ele>
        <time>2017-02-16T12:24:42Z</time>
      </trkpt>
      <trkpt lat="45.92619" lon="6.49863">
        <ele>1562.8</ele>
        <time>2017-02-16T12:24:54Z</time>
      </trkpt>
      <trkpt lat="45.92646" lon="6.49809">
        <ele>1540.5</ele>
        <time>2017-02-16T12:25:33Z</time>
      </trkpt>
      <trkpt lat="45.92647" lon="6.49743">
        <ele>1519.5</ele>
        <time>2017-02-16T12:26:13Z</time>
      </trkpt>
      <trkpt lat="45.92624" lon="6.49684">
        <ele>1513.6</ele>
        <time>2017-02-16T12:26:22Z</time>
      </trkpt>
      <trkpt lat="45.92638" lon="6.49616">
        <ele>1509.1</ele>
        <time>2017-02-16T12:26:33Z</time>
      </trkpt>
      <trkpt lat="45.92637" lon="6.49549">
        <ele>1507</ele>
        <time>2017-02-16T12:26:49Z</time>
      </trkpt>
      <trkpt lat="45.92655" lon="6.49487">
        <ele>1500.6</ele>
        <time>2017-02-16T12:27:01Z</time>
      </trkpt>
      <trkpt lat="45.92693" lon="6.49451">
        <ele>1499.4</ele>
        <time>2017-02-16T12:27:11Z</time>
      </trkpt>
      <trkpt lat="45.92725" lon="6.49404">
        <ele>1498.6</ele>
        <time>2017-02-16T12:29:14Z</time>
      </trkpt>
      <trkpt lat="45.9271" lon="6.49338">
        <ele>1492.3</ele>
        <time>2017-02-16T12:29:22Z</time>
      </trkpt>
      <trkpt lat="45.92683" lon="6.4928">
        <ele>1488.3</ele>
        <time>2017-02-16T12:29:29Z</time>
      </trkpt>
      <trkpt lat="45.9264" lon="6.49256">
        <ele>1489.7</ele>
        <time>2017-02-16T12:29:41Z</time>
      </trkpt>
      <trkpt lat="45.92601" lon="6.49224">
        <ele>1493.3</ele>
        <time>2017-02-16T12:30:20Z</time>
      </trkpt>
      <trkpt lat="45.92556" lon="6.49215">
        <ele>1498.4</ele>
        <time>2017-02-16T12:33:06Z</time>
      </trkpt>
      <trkpt lat="45.92513" lon="6.49196">
        <ele>1502.1</ele>
        <time>2017-02-16T12:33:29Z</time>
      </trkpt>
      <trkpt lat="45.92474" lon="6.49162">
        <ele>1504.6</ele>
        <time>2017-02-16T12:34:04Z</time>
      </trkpt>
      <trkpt lat="45.92443" lon="6.49114">
        <ele>1500.5</ele>
        <time>2017-02-16T12:34:19Z</time>
      </trkpt>
      <trkpt lat="45.92394" lon="6.49112">
        <ele>1493.4</ele>
        <time>2017-02-16T12:34:26Z</time>
      </trkpt>
      <trkpt lat="45.92344" lon="6.49097">
        <ele>1485.7</ele>
        <time>2017-02-16T12:34:32Z</time>
      </trkpt>
      <trkpt lat="45.92304" lon="6.49064">
        <ele>1479.3</ele>
        <time>2017-02-16T12:34:38Z</time>
      </trkpt>
      <trkpt lat="45.92267" lon="6.49011">
        <ele>1469.6</ele>
        <time>2017-02-16T12:34:43Z</time>
      </trkpt>
      <trkpt lat="45.92235" lon="6.48953">
        <ele>1462.1</ele>
        <time>2017-02-16T12:34:48Z</time>
      </trkpt>
      <trkpt lat="45.92197" lon="6.48913">
        <ele>1458.8</ele>
        <time>2017-02-16T12:34:53Z</time>
      </trkpt>
      <trkpt lat="45.92164" lon="6.48866">
        <ele>1456.4</ele>
        <time>2017-02-16T12:35:00Z</time>
      </trkpt>
      <trkpt lat="45.92181" lon="6.48806">
        <ele>1464.3</ele>
        <time>2017-02-16T12:35:43Z</time>
      </trkpt>
      <trkpt lat="45.92166" lon="6.48744">
        <ele>1468.1</ele>
        <time>2017-02-16T12:36:32Z</time>
      </trkpt>
      <trkpt lat="45.92141" lon="6.4869">
        <ele>1470.4</ele>
        <time>2017-02-16T12:37:22Z</time>
      </trkpt>
      <trkpt lat="45.92134" lon="6.48624">
        <ele>1467.3</ele>
        <time>2017-02-16T12:37:57Z</time>
      </trkpt>
      <trkpt lat="45.9216" lon="6.48569">
        <ele>1462.9</ele>
        <time>2017-02-16T12:38:06Z</time>
      </trkpt>
      <trkpt lat="45.92186" lon="6.48513">
        <ele>1455.9</ele>
        <time>2017-02-16T12:38:13Z</time>
      </trkpt>
      <trkpt lat="45.92215" lon="6.4846">
        <ele>1451.4</ele>
        <time>2017-02-16T12:38:19Z</time>
      </trkpt>
      <trkpt lat="45.9223" lon="6.48398">
        <ele>1451.8</ele>
        <time>2017-02-16T12:38:39Z</time>
      </trkpt>
      <trkpt lat="45.92194" lon="6.48348">
        <ele>1445</ele>
        <time>2017-02-16T12:38:47Z</time>
      </trkpt>
      <trkpt lat="45.92189" lon="6.48279">
        <ele>1438.7</ele>
        <time>2017-02-16T12:38:56Z</time>
      </trkpt>
      <trkpt lat="45.92168" lon="6.48218">
        <ele>1433.7</ele>
        <time>2017-02-16T12:39:05Z</time>
      </trkpt>
      <trkpt lat="45.92137" lon="6.48164">
        <ele>1427.9</ele>
        <time>2017-02-16T12:39:12Z</time>
      </trkpt>
      <trkpt lat="45.92097" lon="6.48121">
        <ele>1427.9</ele>
        <time>2017-02-16T12:39:22Z</time>
      </trkpt>
      <trkpt lat="45.92054" lon="6.48102">
        <ele>1427.4</ele>
        <time>2017-02-16T12:39:30Z</time>
      </trkpt>
      <trkpt lat="45.92028" lon="6.48048">
        <ele>1423.7</ele>
        <time>2017-02-16T12:39:37Z</time>
      </trkpt>
      <trkpt lat="45.92007" lon="6.47987">
        <ele>1420.2</ele>
        <time>2017-02-16T12:39:46Z</time>
      </trkpt>
      <trkpt lat="45.91996" lon="6.4792">
        <ele>1419.6</ele>
        <time>2017-02-16T12:39:55Z</time>
      </trkpt>
      <trkpt lat="45.91978" lon="6.47881">
        <ele>1419.1</ele>
        <time>2017-02-16T12:41:04Z</time>
      </trkpt>
    </trkseg>
  </trk>
</gpx>